Terminal Aerodrome Forecast
Issued by NWS

Home | Current Version | Previous Version | Text Only | Print | Product List | Glossary On
Versions: 1 2 3 4 5 6 7 8 9 10 11 12 13 14 15
000
FTUS45 KVEF 130500
TAFHND
TAF
KHND 130530Z 1306/1406 18007KT P6SM BKN250
     FM131500 VRB04KT P6SM FEW140 SCT250
     FM132000 05007KT P6SM SCT140 SCT250
     FM132200 12007KT P6SM SCT140 SCT250
     FM140300 18009KT P6SM SCT140 BKN250=

USA.gov is the U.S. government's official web portal to all federal, state and local government web resources and services.